sensor_id;sensor_type;location;lat;lon;timestamp;pressure;altitude;pressure_sealevel;temperature;humidity
80911;BME280;70359;51.420;7.032;2024-02-28T00:01:39;1004.79;;;4.02;59.90527
80911;BME280;70359;51.420;7.032;2024-02-28T00:04:04;1004.839;;;4.1;59.4375
80911;BME280;70359;51.420;7.032;2024-02-28T00:06:29;1004.796;;;4.07;59.8457
80911;BME280;70359;51.420;7.032;2024-02-28T00:08:54;1004.777;;;4.13;59.19531
80911;BME280;70359;51.420;7.032;2024-02-28T00:11:19;1004.813;;;4.08;59.9248
80911;BME280;70359;51.420;7.032;2024-02-28T00:13:44;1004.768;;;4.09;59.69336
80911;BME280;70359;51.420;7.032;2024-02-28T00:16:09;1004.768;;;4.03;59.25977
80911;BME280;70359;51.420;7.032;2024-02-28T00:18:34;1004.75;;;4;59.30078
80911;BME280;70359;51.420;7.032;2024-02-28T00:20:59;1004.748;;;3.97;59.59766
80911;BME280;70359;51.420;7.032;2024-02-28T00:23:24;1004.847;;;3.98;59.84277
80911;BME280;70359;51.420;7.032;2024-02-28T00:25:49;1004.849;;;3.85;59.78125
80911;BME280;70359;51.420;7.032;2024-02-28T00:28:14;1004.851;;;3.88;59.72949
80911;BME280;70359;51.420;7.032;2024-02-28T00:30:39;1004.801;;;3.86;59.59277
80911;BME280;70359;51.420;7.032;2024-02-28T00:33:04;1004.745;;;3.81;59.8877
80911;BME280;70359;51.420;7.032;2024-02-28T00:35:31;1004.748;;;3.8;59.69531
80911;BME280;70359;51.420;7.032;2024-02-28T00:37:54;1004.722;;;3.79;59.66113
80911;BME280;70359;51.420;7.032;2024-02-28T00:40:19;1004.74;;;3.83;59.5332
80911;BME280;70359;51.420;7.032;2024-02-28T00:42:44;1004.8;;;3.82;59.62012
80911;BME280;70359;51.420;7.032;2024-02-28T00:45:09;1004.785;;;3.84;59.49023
80911;BME280;70359;51.420;7.032;2024-02-28T00:47:34;1004.768;;;3.79;59.80566
80911;BME280;70359;51.420;7.032;2024-02-28T00:49:59;1004.722;;;3.73;59.98633
80911;BME280;70359;51.420;7.032;2024-02-28T00:52:24;1004.714;;;3.64;60.24219
80911;BME280;70359;51.420;7.032;2024-02-28T00:54:49;1004.709;;;3.69;59.56934
80911;BME280;70359;51.420;7.032;2024-02-28T00:57:14;1004.705;;;3.65;59.75391
80911;BME280;70359;51.420;7.032;2024-02-28T00:59:39;1004.729;;;3.65;60.03125
80911;BME280;70359;51.420;7.032;2024-02-28T01:02:04;1004.728;;;3.62;60.56152
80911;BME280;70359;51.420;7.032;2024-02-28T01:04:29;1004.681;;;3.64;61.07617
80911;BME280;70359;51.420;7.032;2024-02-28T01:06:54;1004.704;;;3.57;60.7002
80911;BME280;70359;51.420;7.032;2024-02-28T01:09:19;1004.749;;;3.62;60.88477
80911;BME280;70359;51.420;7.032;2024-02-28T01:11:44;1004.748;;;3.53;61.42969
80911;BME280;70359;51.420;7.032;2024-02-28T01:14:09;1004.76;;;3.59;61.72656
80911;BME280;70359;51.420;7.032;2024-02-28T01:16:34;1004.79;;;3.58;62.10352
80911;BME280;70359;51.420;7.032;2024-02-28T01:18:59;1004.771;;;3.52;62.42969
80911;BME280;70359;51.420;7.032;2024-02-28T01:21:24;1004.737;;;3.5;63.18359
80911;BME280;70359;51.420;7.032;2024-02-28T01:23:49;1004.739;;;3.64;62.97949
80911;BME280;70359;51.420;7.032;2024-02-28T01:26:14;1004.722;;;3.69;62.97559
80911;BME280;70359;51.420;7.032;2024-02-28T01:28:39;1004.808;;;3.74;62.66113
80911;BME280;70359;51.420;7.032;2024-02-28T01:31:04;1004.914;;;3.72;62.52344
80911;BME280;70359;51.420;7.032;2024-02-28T01:33:29;1004.912;;;3.82;62.46094
80911;BME280;70359;51.420;7.032;2024-02-28T01:35:54;1004.961;;;3.94;62.05664
80911;BME280;70359;51.420;7.032;2024-02-28T01:38:19;1004.989;;;3.89;62.23828
80911;BME280;70359;51.420;7.032;2024-02-28T01:40:47;1004.949;;;3.88;62.28125
80911;BME280;70359;51.420;7.032;2024-02-28T01:43:11;1004.964;;;3.86;62.36621
80911;BME280;70359;51.420;7.032;2024-02-28T01:45:34;1004.948;;;3.82;62.02734
80911;BME280;70359;51.420;7.032;2024-02-28T01:47:59;1004.906;;;3.87;62.53418
80911;BME280;70359;51.420;7.032;2024-02-28T01:50:24;1004.784;;;3.8;62.22363
80911;BME280;70359;51.420;7.032;2024-02-28T01:52:49;1004.802;;;3.83;62.66309
80911;BME280;70359;51.420;7.032;2024-02-28T01:55:14;1004.777;;;3.97;62.33887
80911;BME280;70359;51.420;7.032;2024-02-28T01:57:40;1004.708;;;3.87;62.69043
80911;BME280;70359;51.420;7.032;2024-02-28T02:00:05;1004.674;;;3.93;62.55566
80911;BME280;70359;51.420;7.032;2024-02-28T02:02:29;1004.687;;;3.95;61.85742
80911;BME280;70359;51.420;7.032;2024-02-28T02:04:54;1004.705;;;4;62.34277
80911;BME280;70359;51.420;7.032;2024-02-28T02:07:19;1004.654;;;4.02;62.50098
80911;BME280;70359;51.420;7.032;2024-02-28T02:09:44;1004.67;;;4.07;61.93945
80911;BME280;70359;51.420;7.032;2024-02-28T02:12:09;1004.685;;;4.15;61.76172
80911;BME280;70359;51.420;7.032;2024-02-28T02:14:34;1004.612;;;4.06;61.51465
80911;BME280;70359;51.420;7.032;2024-02-28T02:16:59;1004.64;;;4.06;62.26074
80911;BME280;70359;51.420;7.032;2024-02-28T02:19:24;1004.701;;;4.1;61.92188
80911;BME280;70359;51.420;7.032;2024-02-28T02:21:52;1004.722;;;4.06;62.35059
80911;BME280;70359;51.420;7.032;2024-02-28T02:24:14;1004.777;;;4.14;62.13965
80911;BME280;70359;51.420;7.032;2024-02-28T02:26:39;1004.745;;;4.18;62.37793
80911;BME280;70359;51.420;7.032;2024-02-28T02:29:04;1004.743;;;4.26;62.43457
80911;BME280;70359;51.420;7.032;2024-02-28T02:31:29;1004.785;;;4.28;62.43848
80911;BME280;70359;51.420;7.032;2024-02-28T02:33:54;1004.72;;;4.34;62.35742
80911;BME280;70359;51.420;7.032;2024-02-28T02:36:19;1004.698;;;4.36;62.57324
80911;BME280;70359;51.420;7.032;2024-02-28T02:38:44;1004.667;;;4.4;62.82422
80911;BME280;70359;51.420;7.032;2024-02-28T02:41:09;1004.649;;;4.48;62.83496
80911;BME280;70359;51.420;7.032;2024-02-28T02:43:34;1004.607;;;4.57;62.53613
80911;BME280;70359;51.420;7.032;2024-02-28T02:45:59;1004.613;;;4.53;62.66406
80911;BME280;70359;51.420;7.032;2024-02-28T02:48:24;1004.687;;;4.63;62.41113
80911;BME280;70359;51.420;7.032;2024-02-28T02:50:49;1004.741;;;4.61;62.78809
80911;BME280;70359;51.420;7.032;2024-02-28T02:53:14;1004.705;;;4.67;62.49609
80911;BME280;70359;51.420;7.032;2024-02-28T02:55:39;1004.773;;;4.75;62.29395
80911;BME280;70359;51.420;7.032;2024-02-28T02:58:04;1004.81;;;4.71;62.2666
80911;BME280;70359;51.420;7.032;2024-02-28T03:00:29;1004.846;;;4.66;62.79395
80911;BME280;70359;51.420;7.032;2024-02-28T03:02:54;1004.928;;;4.68;62.99902
80911;BME280;70359;51.420;7.032;2024-02-28T03:05:19;1004.96;;;4.69;62.76465
80911;BME280;70359;51.420;7.032;2024-02-28T03:07:44;1004.905;;;4.71;62.82422
80911;BME280;70359;51.420;7.032;2024-02-28T03:10:10;1004.945;;;4.72;62.83691
80911;BME280;70359;51.420;7.032;2024-02-28T03:12:34;1004.938;;;4.76;63.00977
80911;BME280;70359;51.420;7.032;2024-02-28T03:14:59;1004.976;;;4.77;62.87695
80911;BME280;70359;51.420;7.032;2024-02-28T03:17:24;1005.013;;;4.93;62.36426
80911;BME280;70359;51.420;7.032;2024-02-28T03:19:49;1004.965;;;4.96;62.42383
80911;BME280;70359;51.420;7.032;2024-02-28T03:22:14;1004.94;;;5.07;61.86035
80911;BME280;70359;51.420;7.032;2024-02-28T03:24:39;1004.958;;;5.11;61.93359
80911;BME280;70359;51.420;7.032;2024-02-28T03:27:05;1004.97;;;5.01;62.55469
80911;BME280;70359;51.420;7.032;2024-02-28T03:29:29;1004.969;;;5.07;62.58594
80911;BME280;70359;51.420;7.032;2024-02-28T03:31:54;1004.968;;;5.11;62.49121
80911;BME280;70359;51.420;7.032;2024-02-28T03:34:19;1004.94;;;5.15;62.25195
80911;BME280;70359;51.420;7.032;2024-02-28T03:36:44;1004.931;;;5.15;62.14063
80911;BME280;70359;51.420;7.032;2024-02-28T03:39:09;1004.934;;;5.26;61.68555
80911;BME280;70359;51.420;7.032;2024-02-28T03:41:34;1004.918;;;5.28;62.0127
80911;BME280;70359;51.420;7.032;2024-02-28T03:43:59;1004.94;;;5.26;61.91992
80911;BME280;70359;51.420;7.032;2024-02-28T03:46:24;1004.952;;;5.36;61.61133
80911;BME280;70359;51.420;7.032;2024-02-28T03:48:49;1004.969;;;5.29;61.93652
80911;BME280;70359;51.420;7.032;2024-02-28T03:51:14;1004.948;;;5.24;62.17383
80911;BME280;70359;51.420;7.032;2024-02-28T03:53:40;1004.984;;;5.22;62.6416
80911;BME280;70359;51.420;7.032;2024-02-28T03:56:05;1004.961;;;5.21;62.43848
80911;BME280;70359;51.420;7.032;2024-02-28T03:58:29;1004.981;;;5.32;62.27637
80911;BME280;70359;51.420;7.032;2024-02-28T04:00:54;1005.062;;;5.34;62.12109
80911;BME280;70359;51.420;7.032;2024-02-28T04:03:19;1005.135;;;5.29;62.22656
80911;BME280;70359;51.420;7.032;2024-02-28T04:05:45;1005.203;;;5.27;62.60352
80911;BME280;70359;51.420;7.032;2024-02-28T04:08:10;1005.199;;;5.18;62.66797
80911;BME280;70359;51.420;7.032;2024-02-28T04:10:35;1005.14;;;5.4;62.00781
80911;BME280;70359;51.420;7.032;2024-02-28T04:13:00;1005.113;;;5.46;61.70313
80911;BME280;70359;51.420;7.032;2024-02-28T04:15:25;1005.088;;;5.32;62.14063
80911;BME280;70359;51.420;7.032;2024-02-28T04:17:50;1005.126;;;5.42;62.05566
80911;BME280;70359;51.420;7.032;2024-02-28T04:20:15;1005.173;;;5.48;61.80664
80911;BME280;70359;51.420;7.032;2024-02-28T04:22:40;1005.159;;;5.42;62.27832
80911;BME280;70359;51.420;7.032;2024-02-28T04:25:05;1005.162;;;5.46;62.13965
80911;BME280;70359;51.420;7.032;2024-02-28T04:27:30;1005.114;;;5.46;62.2627
80911;BME280;70359;51.420;7.032;2024-02-28T04:29:55;1005.142;;;5.48;62.29883
80911;BME280;70359;51.420;7.032;2024-02-28T04:32:20;1005.134;;;5.33;62.80176
80911;BME280;70359;51.420;7.032;2024-02-28T04:34:45;1005.126;;;5.39;62.94336
80911;BME280;70359;51.420;7.032;2024-02-28T04:37:10;1005.085;;;5.42;63.0166
80911;BME280;70359;51.420;7.032;2024-02-28T04:39:35;1005.107;;;5.38;62.8877
80911;BME280;70359;51.420;7.032;2024-02-28T04:42:00;1005.132;;;5.36;63.20898
80911;BME280;70359;51.420;7.032;2024-02-28T04:44:25;1005.16;;;5.48;63.02637
80911;BME280;70359;51.420;7.032;2024-02-28T04:46:50;1005.181;;;5.42;63.37402
80911;BME280;70359;51.420;7.032;2024-02-28T04:49:15;1005.201;;;5.39;63.52539
80911;BME280;70359;51.420;7.032;2024-02-28T04:51:40;1005.218;;;5.43;63.50879
80911;BME280;70359;51.420;7.032;2024-02-28T04:54:05;1005.196;;;5.48;63.4043
80911;BME280;70359;51.420;7.032;2024-02-28T04:56:30;1005.223;;;5.56;63.00293
80911;BME280;70359;51.420;7.032;2024-02-28T04:58:55;1005.264;;;5.52;63.24219
80911;BME280;70359;51.420;7.032;2024-02-28T05:01:20;1005.279;;;5.56;63.2041
80911;BME280;70359;51.420;7.032;2024-02-28T05:03:45;1005.347;;;5.66;62.87207
80911;BME280;70359;51.420;7.032;2024-02-28T05:06:10;1005.371;;;5.68;63.09961
80911;BME280;70359;51.420;7.032;2024-02-28T05:08:35;1005.339;;;5.7;63.22559
80911;BME280;70359;51.420;7.032;2024-02-28T05:11:00;1005.363;;;5.73;62.86133
80911;BME280;70359;51.420;7.032;2024-02-28T05:13:25;1005.394;;;5.58;63.76563
80911;BME280;70359;51.420;7.032;2024-02-28T05:15:50;1005.381;;;5.7;63.45996
80911;BME280;70359;51.420;7.032;2024-02-28T05:18:15;1005.398;;;5.74;62.97363
80911;BME280;70359;51.420;7.032;2024-02-28T05:20:40;1005.396;;;5.78;62.8457
80911;BME280;70359;51.420;7.032;2024-02-28T05:23:05;1005.374;;;5.81;62.7041
80911;BME280;70359;51.420;7.032;2024-02-28T05:25:30;1005.426;;;5.78;62.73242
80911;BME280;70359;51.420;7.032;2024-02-28T05:27:55;1005.433;;;5.79;62.96973
80911;BME280;70359;51.420;7.032;2024-02-28T05:30:20;1005.495;;;5.84;62.6084
80911;BME280;70359;51.420;7.032;2024-02-28T05:32:45;1005.489;;;5.87;62.28809
80911;BME280;70359;51.420;7.032;2024-02-28T05:35:11;1005.499;;;5.84;62.59668
80911;BME280;70359;51.420;7.032;2024-02-28T05:37:35;1005.564;;;5.87;62.45508
80911;BME280;70359;51.420;7.032;2024-02-28T05:40:00;1005.657;;;5.85;62.53125
80911;BME280;70359;51.420;7.032;2024-02-28T05:42:25;1005.693;;;5.89;62.48145
80911;BME280;70359;51.420;7.032;2024-02-28T05:44:50;1005.743;;;5.85;62.59766
80911;BME280;70359;51.420;7.032;2024-02-28T05:47:15;1005.786;;;5.81;62.97266
80911;BME280;70359;51.420;7.032;2024-02-28T05:49:40;1005.742;;;5.78;63.4707
80911;BME280;70359;51.420;7.032;2024-02-28T05:52:05;1005.749;;;5.73;63.21777
80911;BME280;70359;51.420;7.032;2024-02-28T05:54:30;1005.785;;;5.78;63.31543
80911;BME280;70359;51.420;7.032;2024-02-28T05:56:55;1005.798;;;5.79;63.41699
80911;BME280;70359;51.420;7.032;2024-02-28T05:59:20;1005.866;;;5.84;63.25586
80911;BME280;70359;51.420;7.032;2024-02-28T06:01:45;1005.864;;;5.96;62.55762
80911;BME280;70359;51.420;7.032;2024-02-28T06:04:10;1005.845;;;5.95;62.62305
80911;BME280;70359;51.420;7.032;2024-02-28T06:06:35;1005.87;;;5.94;62.8584
80911;BME280;70359;51.420;7.032;2024-02-28T06:09:00;1005.893;;;5.85;63.15625
80911;BME280;70359;51.420;7.032;2024-02-28T06:11:25;1005.95;;;5.87;63.11621
80911;BME280;70359;51.420;7.032;2024-02-28T06:13:50;1005.976;;;5.87;63.21484
80911;BME280;70359;51.420;7.032;2024-02-28T06:16:17;1005.959;;;5.93;63.23535
80911;BME280;70359;51.420;7.032;2024-02-28T06:18:40;1005.986;;;5.98;62.86328
80911;BME280;70359;51.420;7.032;2024-02-28T06:21:05;1005.976;;;5.95;62.69141
80911;BME280;70359;51.420;7.032;2024-02-28T06:23:30;1005.996;;;5.93;62.98828
80911;BME280;70359;51.420;7.032;2024-02-28T06:25:55;1006.046;;;5.96;62.81445
80911;BME280;70359;51.420;7.032;2024-02-28T06:28:20;1006.104;;;6.04;62.33496
80911;BME280;70359;51.420;7.032;2024-02-28T06:30:45;1006.086;;;6.03;62.5791
80911;BME280;70359;51.420;7.032;2024-02-28T06:33:11;1006.111;;;6.09;62.40723
80911;BME280;70359;51.420;7.032;2024-02-28T06:35:35;1006.097;;;6.04;62.54785
80911;BME280;70359;51.420;7.032;2024-02-28T06:38:00;1006.126;;;6.01;62.44141
80911;BME280;70359;51.420;7.032;2024-02-28T06:40:25;1006.199;;;6.03;62.0752
80911;BME280;70359;51.420;7.032;2024-02-28T06:42:50;1006.256;;;6.04;62.3916
80911;BME280;70359;51.420;7.032;2024-02-28T06:45:15;1006.235;;;6.01;62.62109
80911;BME280;70359;51.420;7.032;2024-02-28T06:47:40;1006.344;;;6;62.77637
80911;BME280;70359;51.420;7.032;2024-02-28T06:50:05;1006.355;;;5.95;63.14844
80911;BME280;70359;51.420;7.032;2024-02-28T06:52:30;1006.444;;;5.99;63.07617
80911;BME280;70359;51.420;7.032;2024-02-28T06:54:55;1006.443;;;5.97;63.33203
80911;BME280;70359;51.420;7.032;2024-02-28T06:57:20;1006.376;;;5.93;63.29004
80911;BME280;70359;51.420;7.032;2024-02-28T06:59:45;1006.433;;;5.95;63.55176
80911;BME280;70359;51.420;7.032;2024-02-28T07:02:10;1006.468;;;5.98;63.25488
80911;BME280;70359;51.420;7.032;2024-02-28T07:04:35;1006.5;;;5.94;63.66309
80911;BME280;70359;51.420;7.032;2024-02-28T07:07:00;1006.583;;;5.91;63.68066
80911;BME280;70359;51.420;7.032;2024-02-28T07:09:25;1006.554;;;6.01;63.57031
80911;BME280;70359;51.420;7.032;2024-02-28T07:11:50;1006.553;;;6.12;63.15137
80911;BME280;70359;51.420;7.032;2024-02-28T07:14:15;1006.621;;;6.12;62.89551
80911;BME280;70359;51.420;7.032;2024-02-28T07:16:40;1006.623;;;6.12;62.89551
80911;BME280;70359;51.420;7.032;2024-02-28T07:19:05;1006.646;;;6.14;62.76367
80911;BME280;70359;51.420;7.032;2024-02-28T07:21:30;1006.674;;;6.07;62.39453
80911;BME280;70359;51.420;7.032;2024-02-28T07:23:55;1006.659;;;6.16;62.29492
80911;BME280;70359;51.420;7.032;2024-02-28T07:26:20;1006.639;;;6.2;61.99902
80911;BME280;70359;51.420;7.032;2024-02-28T07:28:45;1006.671;;;6.13;62.3916
80911;BME280;70359;51.420;7.032;2024-02-28T07:31:13;1006.668;;;6.15;62.76465
80911;BME280;70359;51.420;7.032;2024-02-28T07:33:35;1006.669;;;6.16;62.73242
80911;BME280;70359;51.420;7.032;2024-02-28T07:36:00;1006.675;;;6.11;62.45605
80911;BME280;70359;51.420;7.032;2024-02-28T07:38:25;1006.722;;;6.12;62.24512
80911;BME280;70359;51.420;7.032;2024-02-28T07:40:51;1006.724;;;6.18;61.90723
80911;BME280;70359;51.420;7.032;2024-02-28T07:43:15;1006.71;;;6.1;61.94043
80911;BME280;70359;51.420;7.032;2024-02-28T07:45:40;1006.686;;;6.05;62.34668
80911;BME280;70359;51.420;7.032;2024-02-28T07:48:05;1006.736;;;6.07;62.48438
80911;BME280;70359;51.420;7.032;2024-02-28T07:50:30;1006.749;;;6.05;62.41309
80911;BME280;70359;51.420;7.032;2024-02-28T07:52:57;1006.709;;;6.06;62.53906
80911;BME280;70359;51.420;7.032;2024-02-28T07:55:20;1006.685;;;6.06;62.83984
80911;BME280;70359;51.420;7.032;2024-02-28T07:57:45;1006.698;;;6.17;62.44238
80911;BME280;70359;51.420;7.032;2024-02-28T08:00:19;1006.665;;;6.16;62.58594
80911;BME280;70359;51.420;7.032;2024-02-28T08:02:35;1006.693;;;6.23;62.28223
80911;BME280;70359;51.420;7.032;2024-02-28T08:05:00;1006.712;;;6.13;62.60449
80911;BME280;70359;51.420;7.032;2024-02-28T08:07:25;1006.766;;;6.21;62.44824
80911;BME280;70359;51.420;7.032;2024-02-28T08:09:50;1006.8;;;6.28;62.01074
80911;BME280;70359;51.420;7.032;2024-02-28T08:12:30;1006.761;;;6.36;61.6416
80911;BME280;70359;51.420;7.032;2024-02-28T08:15:21;1006.863;;;6.3;61.99219
80911;BME280;70359;51.420;7.032;2024-02-28T08:17:46;1006.941;;;6.28;62.29004
80911;BME280;70359;51.420;7.032;2024-02-28T08:20:11;1006.966;;;6.32;62.16113
80911;BME280;70359;51.420;7.032;2024-02-28T08:22:36;1006.983;;;6.33;62.09668
80911;BME280;70359;51.420;7.032;2024-02-28T08:25:01;1006.965;;;6.3;62.1709
80911;BME280;70359;51.420;7.032;2024-02-28T08:27:26;1007.018;;;6.36;61.98828
80911;BME280;70359;51.420;7.032;2024-02-28T08:29:51;1006.967;;;6.45;61.5293
80911;BME280;70359;51.420;7.032;2024-02-28T08:32:16;1006.979;;;6.55;61.1416
80911;BME280;70359;51.420;7.032;2024-02-28T08:34:43;1006.972;;;6.43;61.16797
80911;BME280;70359;51.420;7.032;2024-02-28T08:37:06;1007.013;;;6.41;61.31152
80911;BME280;70359;51.420;7.032;2024-02-28T08:39:31;1006.994;;;6.37;61.74316
80911;BME280;70359;51.420;7.032;2024-02-28T08:47:06;1007.031;;;6.44;60.86719
80911;BME280;70359;51.420;7.032;2024-02-28T08:49:31;1007.077;;;6.37;60.8916
80911;BME280;70359;51.420;7.032;2024-02-28T08:51:56;1007.088;;;6.34;60.83203
80911;BME280;70359;51.420;7.032;2024-02-28T08:54:21;1007.117;;;6.34;61.08984
80911;BME280;70359;51.420;7.032;2024-02-28T08:56:46;1007.133;;;6.4;60.98633
80911;BME280;70359;51.420;7.032;2024-02-28T08:59:11;1007.165;;;6.36;61.21582
80911;BME280;70359;51.420;7.032;2024-02-28T09:01:36;1007.17;;;6.33;61.39063
80911;BME280;70359;51.420;7.032;2024-02-28T09:04:01;1007.216;;;6.3;61.32031
80911;BME280;70359;51.420;7.032;2024-02-28T09:06:26;1007.27;;;6.4;61.08789
80911;BME280;70359;51.420;7.032;2024-02-28T09:08:51;1007.291;;;6.38;61.28516
80911;BME280;70359;51.420;7.032;2024-02-28T09:11:16;1007.276;;;6.42;61.38086
80911;BME280;70359;51.420;7.032;2024-02-28T09:13:41;1007.349;;;6.37;61.58691
80911;BME280;70359;51.420;7.032;2024-02-28T09:16:06;1007.386;;;6.39;61.39844
80911;BME280;70359;51.420;7.032;2024-02-28T09:18:31;1007.393;;;6.37;61.56543
80911;BME280;70359;51.420;7.032;2024-02-28T09:20:56;1007.372;;;6.37;61.87891
80911;BME280;70359;51.420;7.032;2024-02-28T09:23:21;1007.339;;;6.36;62.45898
80911;BME280;70359;51.420;7.032;2024-02-28T09:25:46;1007.329;;;6.4;62.14063
80911;BME280;70359;51.420;7.032;2024-02-28T09:28:11;1007.337;;;6.51;61.67383
80911;BME280;70359;51.420;7.032;2024-02-28T09:30:36;1007.355;;;6.51;61.60742
80911;BME280;70359;51.420;7.032;2024-02-28T09:33:01;1007.34;;;6.39;61.73438
80911;BME280;70359;51.420;7.032;2024-02-28T09:35:26;1007.277;;;6.43;61.75195
80911;BME280;70359;51.420;7.032;2024-02-28T09:37:51;1007.275;;;6.48;61.49023
80911;BME280;70359;51.420;7.032;2024-02-28T09:40:16;1007.318;;;6.41;62.12891
80911;BME280;70359;51.420;7.032;2024-02-28T09:42:41;1007.323;;;6.47;61.74609
80911;BME280;70359;51.420;7.032;2024-02-28T09:45:06;1007.297;;;6.53;62.03418
80911;BME280;70359;51.420;7.032;2024-02-28T09:47:31;1007.266;;;6.66;61.3584
80911;BME280;70359;51.420;7.032;2024-02-28T09:49:57;1007.269;;;6.69;61.35254
80911;BME280;70359;51.420;7.032;2024-02-28T09:52:21;1007.269;;;6.74;60.80957
80911;BME280;70359;51.420;7.032;2024-02-28T09:54:46;1007.301;;;6.79;60.93848
80911;BME280;70359;51.420;7.032;2024-02-28T09:57:11;1007.266;;;6.86;60.69238
80911;BME280;70359;51.420;7.032;2024-02-28T09:59:36;1007.231;;;6.89;60.39258
80911;BME280;70359;51.420;7.032;2024-02-28T10:02:01;1007.222;;;6.91;60.10352
80911;BME280;70359;51.420;7.032;2024-02-28T10:04:26;1007.218;;;6.74;60.84277
80911;BME280;70359;51.420;7.032;2024-02-28T10:06:51;1007.184;;;6.73;60.84277
80911;BME280;70359;51.420;7.032;2024-02-28T10:09:16;1007.203;;;6.72;60.46875
80911;BME280;70359;51.420;7.032;2024-02-28T10:11:41;1007.188;;;6.7;60.65723
80911;BME280;70359;51.420;7.032;2024-02-28T10:14:06;1007.16;;;6.75;60.57324
80911;BME280;70359;51.420;7.032;2024-02-28T10:16:31;1007.195;;;6.78;60.07422
80911;BME280;70359;51.420;7.032;2024-02-28T10:18:56;1007.238;;;6.77;60.91406
80911;BME280;70359;51.420;7.032;2024-02-28T10:21:21;1007.157;;;6.84;59.93848
80911;BME280;70359;51.420;7.032;2024-02-28T10:23:46;1007.191;;;6.82;60.27051
80911;BME280;70359;51.420;7.032;2024-02-28T10:26:12;1007.202;;;6.87;60.11035
80911;BME280;70359;51.420;7.032;2024-02-28T10:28:36;1007.253;;;6.87;60.45801
80911;BME280;70359;51.420;7.032;2024-02-28T10:31:01;1007.251;;;6.85;59.67969
80911;BME280;70359;51.420;7.032;2024-02-28T10:33:26;1007.266;;;6.9;60.33789
80911;BME280;70359;51.420;7.032;2024-02-28T10:35:51;1007.268;;;7.01;60.03809
80911;BME280;70359;51.420;7.032;2024-02-28T10:38:16;1007.335;;;7.06;59.69824
80911;BME280;70359;51.420;7.032;2024-02-28T10:40:41;1007.412;;;7.13;59.80859
80911;BME280;70359;51.420;7.032;2024-02-28T10:43:06;1007.417;;;7.18;59.86035
80911;BME280;70359;51.420;7.032;2024-02-28T10:45:31;1007.456;;;7.3;58.85547
80911;BME280;70359;51.420;7.032;2024-02-28T10:47:56;1007.524;;;7.34;58.88281
80911;BME280;70359;51.420;7.032;2024-02-28T10:50:21;1007.515;;;7.26;58.33203
80911;BME280;70359;51.420;7.032;2024-02-28T10:52:46;1007.523;;;7.28;58.76172
80911;BME280;70359;51.420;7.032;2024-02-28T10:55:11;1007.534;;;7.29;58.98828
80911;BME280;70359;51.420;7.032;2024-02-28T10:57:36;1007.522;;;7.31;58.81055
80911;BME280;70359;51.420;7.032;2024-02-28T11:00:01;1007.543;;;7.28;58.69434
80911;BME280;70359;51.420;7.032;2024-02-28T11:02:26;1007.471;;;7.36;58.72852
80911;BME280;70359;51.420;7.032;2024-02-28T11:04:51;1007.474;;;7.34;58.69238
80911;BME280;70359;51.420;7.032;2024-02-28T11:07:18;1007.437;;;7.4;59.10352
80911;BME280;70359;51.420;7.032;2024-02-28T11:09:41;1007.46;;;7.38;58.58496
80911;BME280;70359;51.420;7.032;2024-02-28T11:12:07;1007.476;;;7.46;58.75293
80911;BME280;70359;51.420;7.032;2024-02-28T11:14:31;1007.531;;;7.49;57.62207
80911;BME280;70359;51.420;7.032;2024-02-28T11:17:05;1007.51;;;7.54;58.44922
80911;BME280;70359;51.420;7.032;2024-02-28T11:19:24;1007.568;;;7.53;58.57129
80911;BME280;70359;51.420;7.032;2024-02-28T11:21:46;1007.499;;;7.54;58.53906
80911;BME280;70359;51.420;7.032;2024-02-28T11:24:12;1007.482;;;7.47;58.24902
80911;BME280;70359;51.420;7.032;2024-02-28T11:26:36;1007.448;;;7.58;58.10547
80911;BME280;70359;51.420;7.032;2024-02-28T11:29:01;1007.418;;;7.57;58.12793
80911;BME280;70359;51.420;7.032;2024-02-28T11:31:26;1007.415;;;7.65;57.91211
80911;BME280;70359;51.420;7.032;2024-02-28T11:33:51;1007.382;;;7.64;57.99023
80911;BME280;70359;51.420;7.032;2024-02-28T11:36:16;1007.335;;;7.73;58.31641
80911;BME280;70359;51.420;7.032;2024-02-28T11:38:42;1007.301;;;7.76;57.90527
80911;BME280;70359;51.420;7.032;2024-02-28T11:41:06;1007.249;;;7.83;57.7793
80911;BME280;70359;51.420;7.032;2024-02-28T11:43:31;1007.197;;;7.82;58.00293
80911;BME280;70359;51.420;7.032;2024-02-28T11:45:57;1007.196;;;7.83;57.68848
80911;BME280;70359;51.420;7.032;2024-02-28T11:48:21;1007.17;;;7.89;57.95605
80911;BME280;70359;51.420;7.032;2024-02-28T11:50:46;1007.15;;;7.96;57.70703
80911;BME280;70359;51.420;7.032;2024-02-28T11:53:11;1007.105;;;7.99;58.08203
80911;BME280;70359;51.420;7.032;2024-02-28T11:55:36;1007.067;;;8.05;57.85352
80911;BME280;70359;51.420;7.032;2024-02-28T11:58:01;1006.997;;;8.11;56.76758
80911;BME280;70359;51.420;7.032;2024-02-28T12:00:26;1007.047;;;8.16;57.09082
80911;BME280;70359;51.420;7.032;2024-02-28T12:02:51;1007.038;;;8.22;57.12012
80911;BME280;70359;51.420;7.032;2024-02-28T12:05:18;1007.039;;;8.22;56.72754
80911;BME280;70359;51.420;7.032;2024-02-28T12:07:41;1006.941;;;8.33;56.84277
80911;BME280;70359;51.420;7.032;2024-02-28T12:10:07;1006.951;;;8.23;56.83008
80911;BME280;70359;51.420;7.032;2024-02-28T12:12:31;1006.938;;;8.44;55.81836
80911;BME280;70359;51.420;7.032;2024-02-28T12:14:57;1006.921;;;8.49;54.12305
80911;BME280;70359;51.420;7.032;2024-02-28T12:17:21;1006.867;;;8.57;55.32813
80911;BME280;70359;51.420;7.032;2024-02-28T12:19:46;1006.846;;;8.55;55.63086
80911;BME280;70359;51.420;7.032;2024-02-28T12:22:11;1006.859;;;8.62;55.22266
80911;BME280;70359;51.420;7.032;2024-02-28T12:24:36;1006.796;;;8.64;55.19141
80911;BME280;70359;51.420;7.032;2024-02-28T12:27:01;1006.75;;;8.69;55.42383
80911;BME280;70359;51.420;7.032;2024-02-28T12:29:26;1006.735;;;8.72;55.05469
80911;BME280;70359;51.420;7.032;2024-02-28T12:31:51;1006.761;;;8.77;54.8125
80911;BME280;70359;51.420;7.032;2024-02-28T12:34:16;1006.698;;;8.71;54.41016
80911;BME280;70359;51.420;7.032;2024-02-28T12:36:41;1006.62;;;8.81;53.62109